Time;durP1;ratioP1;P1;durP2;ratioP2;P2;SDS_P1;SDS_P2;PMS_P1;PMS_P2;Temp;Humidity;BMP_temperature;BMP_pressure;BME280_temperature;BME280_humidity;BME280_pressure;Samples;Min_cycle;Max_cycle;Signal;HPM_P1;HPM_P2
2021/10/11 00:00:06;;;;;;;;;68.75;49.00;;;;;11.49;39.19;99217.53;4840190;28;102271;-85
2021/10/11 00:02:35;;;;;;;;;64.50;46.00;;;;;11.47;39.20;99211.50;4827496;28;109821;-85
2021/10/11 00:05:05;;;;;;;;;69.00;49.75;;;;;11.47;38.61;99210.66;4769048;28;103073;-85
2021/10/11 00:07:34;;;;;;;;;65.75;51.50;;;;;11.47;38.73;99214.19;4810258;28;103094;-85
2021/10/11 00:10:06;;;;;;;;;70.75;50.75;;;;;11.45;38.87;99210.81;4793268;28;102204;-85
2021/10/11 00:12:35;;;;;;;;;62.50;46.25;;;;;11.45;39.07;99213.53;4831860;28;103682;-85
2021/10/11 00:15:06;;;;;;;;;68.25;51.00;;;;;11.44;38.98;99209.16;4835215;28;103382;-85
2021/10/11 00:17:35;;;;;;;;;66.75;49.50;;;;;11.43;38.93;99212.91;4840764;28;103793;-85
2021/10/11 00:20:05;;;;;;;;;67.00;50.75;;;;;11.43;38.57;99210.19;4832141;28;102688;-85
2021/10/11 00:22:35;;;;;;;;;60.00;47.75;;;;;11.43;38.85;99215.63;4827478;28;102536;-85
2021/10/11 00:25:06;;;;;;;;;72.75;51.25;;;;;11.39;38.78;99208.88;4834328;28;102749;-85
2021/10/11 00:27:35;;;;;;;;;69.50;50.50;;;;;11.39;38.58;99213.47;4834648;28;103101;-85
2021/10/11 00:30:07;;;;;;;;;64.25;48.75;;;;;11.36;38.84;99209.28;4832701;28;102773;-85
2021/10/11 00:32:39;;;;;;;;;67.00;52.25;;;;;11.33;38.72;99198.84;4828993;28;102292;-85
2021/10/11 00:35:08;;;;;;;;;60.00;47.33;;;;;11.34;38.37;99200.50;4835141;28;102478;-85
2021/10/11 00:37:37;;;;;;;;;58.50;44.00;;;;;11.33;38.73;99198.00;4814983;28;105865;-85
2021/10/11 00:40:07;;;;;;;;;61.50;48.00;;;;;11.31;38.59;99195.47;4827554;28;103438;-85
2021/10/11 00:42:36;;;;;;;;;62.75;49.00;;;;;11.30;38.56;99193.78;4826146;28;102505;-85
2021/10/11 00:45:06;;;;;;;;;66.50;51.75;;;;;11.27;38.57;99188.75;4809811;28;102759;-85
2021/10/11 00:47:35;;;;;;;;;56.00;43.75;;;;;11.24;38.58;99189.16;4817439;28;103190;-85
2021/10/11 00:50:05;;;;;;;;;59.50;46.50;;;;;11.24;38.74;99185.59;4822506;28;102859;-85
2021/10/11 00:52:38;;;;;;;;;60.00;46.50;;;;;11.25;38.54;99195.41;4823764;28;102650;-85
2021/10/11 00:55:07;;;;;;;;;64.50;49.25;;;;;11.22;38.67;99202.03;4811921;28;104008;-85
2021/10/11 00:57:36;;;;;;;;;62.50;49.25;;;;;11.22;38.51;99195.75;4836568;28;103707;-85
2021/10/11 01:00:06;;;;;;;;;56.25;45.00;;;;;11.18;38.63;99196.16;4835118;28;102814;-85
2021/10/11 01:02:36;;;;;;;;;67.50;46.00;;;;;11.17;38.87;99186.34;4778202;28;102666;-85
2021/10/11 01:05:08;;;;;;;;;58.50;47.25;;;;;11.17;38.71;99180.09;4785986;28;102538;-85
2021/10/11 01:07:37;;;;;;;;;60.00;47.75;;;;;11.16;38.55;99170.31;4783720;28;103604;-85
2021/10/11 01:10:07;;;;;;;;;59.50;47.50;;;;;11.16;38.69;99164.91;4775182;28;104028;-85
2021/10/11 01:12:36;;;;;;;;;62.00;44.75;;;;;11.17;38.42;99167.41;4800692;28;102376;-85
2021/10/11 01:15:06;;;;;;;;;64.25;48.50;;;;;11.16;37.97;99170.31;4798413;28;103133;-85
2021/10/11 01:17:36;;;;;;;;;57.50;44.50;;;;;11.13;38.36;99160.69;4830603;28;103910;-85
2021/10/11 01:20:05;;;;;;;;;60.50;41.50;;;;;11.12;38.51;99159.00;4830290;28;102635;-85
2021/10/11 01:22:34;;;;;;;;;59.75;44.75;;;;;11.11;38.50;99156.53;4827145;28;102206;-85
2021/10/11 01:25:01;;;;;;;;;59.25;45.50;;;;;11.10;38.24;99160.25;4817780;28;102595;-85
2021/10/11 01:27:28;;;;;;;;;51.75;42.25;;;;;11.09;38.86;99159.41;4818227;28;104118;-85
2021/10/11 01:29:56;;;;;;;;;55.25;44.00;;;;;11.10;38.26;99158.38;4838532;28;108369;-84
2021/10/11 01:32:23;;;;;;;;;57.75;43.00;;;;;11.07;38.28;99139.84;4821873;28;103745;-84
2021/10/11 01:34:51;;;;;;;;;58.00;42.25;;;;;11.10;38.43;99138.59;4827515;28;102637;-84
2021/10/11 01:37:18;;;;;;;;;54.25;43.75;;;;;11.07;38.55;99128.16;4838504;28;104706;-85
2021/10/11 01:39:45;;;;;;;;;55.50;43.00;;;;;11.06;38.42;99131.91;4838403;28;102620;-85
2021/10/11 01:42:12;;;;;;;;;58.00;43.75;;;;;11.07;38.38;99130.88;4831453;28;104686;-85
2021/10/11 01:44:39;;;;;;;;;51.75;40.25;;;;;11.05;38.53;99136.47;4829797;28;102763;-85
2021/10/11 01:47:06;;;;;;;;;57.25;41.25;;;;;11.02;38.27;99130.59;4822590;28;103952;-85
2021/10/11 01:49:33;;;;;;;;;59.75;44.00;;;;;11.00;38.49;99133.50;4828098;28;102464;-85
2021/10/11 01:52:00;;;;;;;;;53.50;41.50;;;;;10.99;38.75;99133.66;4839341;28;102426;-85
2021/10/11 01:54:27;;;;;;;;;56.00;44.25;;;;;10.98;38.33;99132.00;4811492;28;102494;-85
2021/10/11 01:56:57;;;;;;;;;56.75;45.00;;;;;10.96;38.26;99128.66;4831123;28;104712;-85
2021/10/11 01:59:24;;;;;;;;;57.50;45.00;;;;;10.93;38.38;99124.47;4842264;28;102069;-85
2021/10/11 02:01:51;;;;;;;;;55.00;41.75;;;;;10.94;38.42;99117.19;4829304;28;103493;-85
2021/10/11 02:04:18;;;;;;;;;56.50;44.75;;;;;10.93;38.30;99119.06;4834118;28;102642;-84
2021/10/11 02:06:45;;;;;;;;;54.25;45.25;;;;;10.93;38.63;99115.50;4841587;28;104056;-85
2021/10/11 02:09:12;;;;;;;;;58.75;44.00;;;;;10.92;38.65;99108.41;4830842;28;102558;-85
2021/10/11 02:11:39;;;;;;;;;52.75;42.25;;;;;10.93;38.29;99112.81;4834808;28;102618;-85
2021/10/11 02:14:06;;;;;;;;;61.00;45.00;;;;;10.91;38.45;99101.31;4839080;28;102432;-85
2021/10/11 02:16:33;;;;;;;;;44.25;39.50;;;;;10.90;38.38;99105.88;4834228;28;104107;-85
2021/10/11 02:19:00;;;;;;;;;53.25;43.25;;;;;10.88;38.44;99090.91;4834931;28;102474;-85
2021/10/11 02:21:27;;;;;;;;;56.75;44.25;;;;;10.88;38.47;99096.31;4836867;28;102528;-85
2021/10/11 02:23:54;;;;;;;;;52.50;44.00;;;;;10.89;38.54;99100.69;4848235;28;102264;-85
2021/10/11 02:26:23;;;;;;;;;57.25;44.00;;;;;10.88;38.52;99099.84;4830692;28;104268;-84
2021/10/11 02:28:51;;;;;;;;;51.50;40.75;;;;;10.86;38.80;99103.75;4843049;28;102636;-84
2021/10/11 02:31:18;;;;;;;;;54.75;41.25;;;;;10.86;38.52;99098.34;4844945;28;102317;-85
2021/10/11 02:33:45;;;;;;;;;57.50;43.00;;;;;10.82;38.51;99094.34;4837580;28;102456;-85
2021/10/11 02:36:12;;;;;;;;;60.75;46.25;;;;;10.82;38.57;99086.22;4823823;28;104095;-85
2021/10/11 02:38:39;;;;;;;;;58.00;44.25;;;;;10.81;38.53;99079.97;4829788;28;102595;-85
2021/10/11 02:41:06;;;;;;;;;62.75;46.00;;;;;10.81;38.56;99095.41;4841004;28;103332;-85
2021/10/11 02:43:33;;;;;;;;;59.25;44.25;;;;;10.80;38.59;99088.31;4835550;28;102564;-85
2021/10/11 02:46:00;;;;;;;;;60.00;46.75;;;;;10.78;38.54;99088.50;4840735;28;104089;-85
2021/10/11 02:48:27;;;;;;;;;61.00;44.25;;;;;10.76;38.48;99090.56;4824647;28;102446;-85
2021/10/11 02:50:54;;;;;;;;;59.50;43.75;;;;;10.74;38.51;99085.34;4839875;28;102579;-84
2021/10/11 02:53:21;;;;;;;;;55.75;45.00;;;;;10.73;38.74;99085.50;4837069;28;104124;-85
2021/10/11 02:55:48;;;;;;;;;57.00;44.25;;;;;10.73;38.60;99089.06;4834749;28;103877;-85
2021/10/11 02:58:15;;;;;;;;;60.00;46.25;;;;;10.73;38.49;99090.91;4846289;28;102371;-85
2021/10/11 03:00:42;;;;;;;;;60.50;45.75;;;;;10.71;38.71;99096.53;4837586;28;102399;-85
2021/10/11 03:03:09;;;;;;;;;56.25;46.00;;;;;10.69;38.59;99093.19;4838909;28;102783;-85
2021/10/11 03:05:36;;;;;;;;;53.00;42.75;;;;;10.71;38.91;99093.00;4834157;28;104377;-85
2021/10/11 03:08:04;;;;;;;;;54.00;44.25;;;;;10.76;38.57;99092.44;4845499;28;102932;-85
2021/10/11 03:10:31;;;;;;;;;59.00;44.00;;;;;10.83;38.51;99083.34;4834499;28;102634;-85
2021/10/11 03:12:58;;;;;;;;;48.75;40.00;;;;;10.91;38.47;99087.78;4840655;28;102960;-85
2021/10/11 03:15:25;;;;;;;;;51.50;43.50;;;;;10.99;38.52;99093.06;4841809;28;104071;-85
2021/10/11 03:17:52;;;;;;;;;54.25;40.25;;;;;11.02;38.45;99079.19;4851828;28;102569;-84
2021/10/11 03:20:19;;;;;;;;;57.00;41.00;;;;;11.07;38.32;99090.28;4860033;28;102675;-85
2021/10/11 03:22:46;;;;;;;;;50.50;41.50;;;;;11.10;37.96;99095.28;4845729;28;102551;-85
2021/10/11 03:25:13;;;;;;;;;55.25;40.75;;;;;11.07;38.25;99085.72;4854508;28;104128;-85
2021/10/11 03:27:40;;;;;;;;;54.50;41.50;;;;;11.10;38.25;99079.91;4844403;28;102687;-85
2021/10/11 03:30:07;;;;;;;;;44.25;38.75;;;;;11.10;37.96;99079.06;4853406;28;110754;-85
2021/10/11 03:32:34;;;;;;;;;54.50;40.75;;;;;11.07;38.06;99071.34;4846890;28;102667;-85
2021/10/11 03:35:01;;;;;;;;;54.25;41.00;;;;;11.08;37.45;99072.97;4846903;28;104074;-85
2021/10/11 03:37:31;;;;;;;;;57.25;43.25;;;;;11.05;37.69;99070.69;4847449;28;102479;-85
2021/10/11 03:39:58;;;;;;;;;57.50;44.00;;;;;10.99;37.80;99063.31;4849794;28;102490;-85
2021/10/11 03:42:25;;;;;;;;;31.75;23.25;;;;;10.98;38.12;99072.50;4830756;28;102729;-85
2021/10/11 03:44:52;;;;;;;;;58.75;45.50;;;;;10.97;37.83;99078.91;4861444;28;104099;-85
2021/10/11 03:47:19;;;;;;;;;58.25;46.00;;;;;10.95;37.73;99067.44;4847016;28;102662;-85
2021/10/11 03:49:46;;;;;;;;;61.50;45.00;;;;;10.95;37.83;99075.56;4847664;28;102762;-85
2021/10/11 03:52:13;;;;;;;;;53.50;40.75;;;;;10.94;37.80;99080.13;4859303;28;102267;-85
2021/10/11 03:54:40;;;;;;;;;61.25;46.00;;;;;10.90;37.74;99072.59;4848729;28;104217;-85
2021/10/11 03:57:07;;;;;;;;;56.50;42.75;;;;;10.87;37.89;99067.56;4843440;28;102684;-85
2021/10/11 03:59:34;;;;;;;;;57.25;45.00;;;;;10.86;37.93;99071.28;4847947;28;102682;-85
2021/10/11 04:02:02;;;;;;;;;56.50;43.00;;;;;10.85;37.33;99067.75;4850385;28;102719;-85
2021/10/11 04:04:29;;;;;;;;;54.00;43.00;;;;;10.84;37.82;99054.44;4841589;28;104032;-85
2021/10/11 04:07:01;;;;;;;;;56.00;45.00;;;;;10.83;37.82;99058.16;4852780;28;103963;-84
2021/10/11 04:09:29;;;;;;;;;58.75;45.75;;;;;10.82;37.62;99056.47;4862240;28;102473;-85
2021/10/11 04:12:05;;;;;;;;;56.75;44.75;;;;;10.80;37.62;99047.72;4855898;28;104253;-84
2021/10/11 04:14:33;;;;;;;;;57.75;43.25;;;;;10.80;37.61;99045.03;4857281;28;104236;-85
2021/10/11 04:17:00;;;;;;;;;58.00;44.25;;;;;10.79;37.81;99040.63;4862813;28;102379;-85
2021/10/11 04:19:27;;;;;;;;;51.75;42.75;;;;;10.79;37.47;99037.94;4819078;28;102931;-85
2021/10/11 04:21:54;;;;;;;;;60.00;45.50;;;;;10.75;37.59;99034.78;4845878;28;102547;-85
2021/10/11 04:24:21;;;;;;;;;53.75;43.25;;;;;10.74;37.75;99042.06;4848927;28;108979;-85
2021/10/11 04:26:48;;;;;;;;;55.00;41.25;;;;;10.72;38.24;99036.00;4833368;28;102340;-85
2021/10/11 04:29:15;;;;;;;;;62.75;45.25;;;;;10.70;37.58;99035.34;4837438;28;102507;-85
2021/10/11 04:31:42;;;;;;;;;57.25;44.00;;;;;10.69;37.44;99033.66;4846536;28;103179;-85
2021/10/11 04:34:09;;;;;;;;;53.25;43.00;;;;;10.67;37.70;99033.00;4807433;28;104415;-85
2021/10/11 04:36:36;;;;;;;;;57.50;44.25;;;;;10.64;37.94;99028.00;4814102;28;103738;-85
2021/10/11 04:39:03;;;;;;;;;57.00;44.75;;;;;10.65;37.45;99032.38;4839424;28;102634;-85
2021/10/11 04:41:30;;;;;;;;;28.00;23.25;;;;;10.63;37.28;99031.72;4836374;28;102820;-85
2021/10/11 04:43:57;;;;;;;;;52.00;42.25;;;;;10.60;37.58;99039.38;4839873;28;104152;-85
2021/10/11 04:46:24;;;;;;;;;53.75;42.75;;;;;10.58;37.53;99041.47;4839421;28;102555;-85
2021/10/11 04:48:51;;;;;;;;;59.75;45.50;;;;;10.59;37.43;99035.84;4836307;28;102417;-85
2021/10/11 04:51:18;;;;;;;;;57.25;42.75;;;;;10.56;37.26;99038.09;4840426;28;102583;-85
2021/10/11 04:53:45;;;;;;;;;31.00;21.00;;;;;10.55;37.35;99028.28;4832291;28;104220;-85
2021/10/11 04:56:12;;;;;;;;;53.75;44.25;;;;;10.53;37.45;99023.09;4829769;28;102792;-85
2021/10/11 04:58:39;;;;;;;;;54.75;43.25;;;;;10.50;37.27;99034.28;4826286;28;103420;-85
2021/10/11 05:01:06;;;;;;;;;55.75;44.00;;;;;10.50;37.60;99036.97;4833892;28;103963;-85
2021/10/11 05:03:33;;;;;;;;;63.50;47.00;;;;;10.49;37.27;99032.59;4832723;28;104044;-85
2021/10/11 05:06:00;;;;;;;;;58.25;45.50;;;;;10.46;37.80;99035.69;4837353;28;102649;-85
2021/10/11 05:08:27;;;;;;;;;56.25;45.00;;;;;10.47;37.18;99040.06;4837153;28;102759;-84
2021/10/11 05:10:54;;;;;;;;;54.50;43.75;;;;;10.46;37.27;99042.97;4840910;28;103579;-85
2021/10/11 05:13:21;;;;;;;;;54.50;43.75;;;;;10.44;37.32;99047.72;4845107;28;108824;-85
2021/10/11 05:15:48;;;;;;;;;60.00;47.50;;;;;10.44;37.18;99059.38;4837071;28;102364;-85
2021/10/11 05:18:15;;;;;;;;;62.50;46.75;;;;;10.43;37.40;99054.16;4836361;28;102603;-85
2021/10/11 05:20:48;;;;;;;;;57.50;46.00;;;;;10.42;37.25;99047.91;4849450;28;102461;-86
2021/10/11 05:23:17;;;;;;;;;60.25;47.25;;;;;10.40;37.35;99058.06;4843642;28;104083;-85
2021/10/11 05:25:45;;;;;;;;;62.00;46.50;;;;;10.38;37.07;99056.59;4838036;28;102805;-85
2021/10/11 05:28:12;;;;;;;;;59.00;47.75;;;;;10.38;37.44;99046.63;4841478;28;102682;-85
2021/10/11 05:30:40;;;;;;;;;60.75;44.25;;;;;10.37;37.36;99036.81;4843822;28;102569;-85
2021/10/11 05:33:08;;;;;;;;;56.75;46.50;;;;;10.33;37.54;99043.63;4840878;28;104286;-85
2021/10/11 05:35:38;;;;;;;;;60.50;47.50;;;;;10.31;37.33;99026.78;4843362;28;102212;-85
2021/10/11 05:38:05;;;;;;;;;65.25;46.50;;;;;10.34;37.60;99045.31;4831503;28;102613;-85
2021/10/11 05:40:33;;;;;;;;;61.25;47.00;;;;;10.31;37.18;99040.31;4806050;28;102434;-85
2021/10/11 05:43:00;;;;;;;;;57.50;47.00;;;;;10.30;37.34;99038.63;4818026;28;104063;-85
2021/10/11 05:45:27;;;;;;;;;60.50;48.00;;;;;10.30;37.08;99035.91;4848901;28;102354;-84
2021/10/11 05:47:54;;;;;;;;;61.25;46.50;;;;;10.30;37.34;99033.22;4826548;28;102618;-85
2021/10/11 05:50:21;;;;;;;;;59.50;44.25;;;;;10.30;37.41;99033.22;4839425;28;102740;-85
2021/10/11 05:52:48;;;;;;;;;63.50;47.25;;;;;10.27;37.59;99039.81;4846155;28;104201;-85
2021/10/11 05:55:15;;;;;;;;;63.50;47.00;;;;;10.28;37.12;99043.34;4836023;28;103118;-85
2021/10/11 05:57:42;;;;;;;;;65.75;49.50;;;;;10.28;37.50;99043.34;4847086;28;105122;-85
2021/10/11 06:00:10;;;;;;;;;68.00;51.00;;;;;10.27;37.37;99047.09;4840330;28;102684;-85
2021/10/11 06:02:37;;;;;;;;;62.75;47.50;;;;;10.25;36.94;99046.44;4839924;28;106813;-85
2021/10/11 06:05:05;;;;;;;;;60.00;47.50;;;;;10.24;37.39;99039.38;4842320;28;102397;-85
2021/10/11 06:07:32;;;;;;;;;61.00;45.67;;;;;10.24;37.44;99044.75;4829488;28;103127;-85
2021/10/11 06:09:59;;;;;;;;;61.50;45.75;;;;;10.22;37.42;99050.34;4824335;28;102841;-85
2021/10/11 06:12:26;;;;;;;;;56.33;43.33;;;;;10.20;37.21;99048.88;4833383;28;103265;-85
2021/10/11 06:14:58;;;;;;;;;60.00;47.25;;;;;10.19;37.30;99042.63;4831668;28;102548;-85
2021/10/11 06:17:25;;;;;;;;;63.25;48.25;;;;;10.22;37.17;99041.44;4847135;28;103037;-85
2021/10/11 06:19:52;;;;;;;;;66.67;51.00;;;;;10.20;37.01;99038.06;4834065;28;102715;-85
2021/10/11 06:22:19;;;;;;;;;63.33;49.33;;;;;10.18;37.24;99034.69;4841820;28;103833;-86
2021/10/11 06:24:46;;;;;;;;;67.50;50.00;;;;;10.18;37.02;99040.09;4823447;28;102597;-86
2021/10/11 06:27:13;;;;;;;;;65.00;47.25;;;;;10.18;37.30;99040.94;4835846;28;105798;-86
2021/10/11 06:29:40;;;;;;;;;65.25;48.75;;;;;10.17;37.13;99033.03;4817567;28;102372;-85
2021/10/11 06:32:07;;;;;;;;;61.25;45.50;;;;;10.17;37.42;99033.03;4842288;28;105369;-85
2021/10/11 06:34:34;;;;;;;;;64.50;50.00;;;;;10.15;37.64;99030.53;4826008;28;104266;-85
2021/10/11 06:37:01;;;;;;;;;63.00;47.50;;;;;10.12;37.13;99030.03;4824156;28;102846;-85
2021/10/11 06:39:28;;;;;;;;;65.67;52.00;;;;;10.11;37.38;99034.59;4832896;28;103247;-86
2021/10/11 06:41:55;;;;;;;;;62.00;48.00;;;;;10.12;37.55;99033.56;4826916;28;106129;-85
2021/10/11 06:44:22;;;;;;;;;65.25;49.75;;;;;10.10;37.72;99032.91;4822227;28;103422;-86
2021/10/11 06:46:50;;;;;;;;;64.33;50.67;;;;;10.13;37.44;99034.41;4824282;28;103391;-85
2021/10/11 06:49:17;;;;;;;;;63.67;51.00;;;;;10.11;37.42;99031.03;4801075;28;102612;-85
2021/10/11 06:51:44;;;;;;;;;66.67;52.00;;;;;10.11;37.55;99034.59;4838421;28;104518;-85
2021/10/11 06:54:11;;;;;;;;;61.33;50.33;;;;;10.12;37.44;99032.72;4847288;28;102529;-85
2021/10/11 06:56:38;;;;;;;;;67.00;50.00;;;;;10.13;37.78;99031.72;4832336;28;102933;-86
2021/10/11 06:59:05;;;;;;;;;66.00;50.67;;;;;10.12;37.07;99033.56;4841116;28;102648;-86
2021/10/11 07:01:32;;;;;;;;;60.25;49.25;;;;;10.12;37.39;99030.03;4839072;28;103653;-85
2021/10/11 07:04:00;;;;;;;;;63.67;49.00;;;;;10.13;37.68;99042.53;4836613;28;102566;-85
2021/10/11 07:06:27;;;;;;;;;66.00;49.67;;;;;10.14;37.77;99038.78;4834665;28;103377;-85
2021/10/11 07:08:54;;;;;;;;;70.33;52.67;;;;;10.16;37.89;99036.75;4844431;28;102586;-85
2021/10/11 07:11:21;;;;;;;;;66.00;50.00;;;;;10.16;37.56;99034.91;4841456;28;104105;-86
2021/10/11 07:13:48;;;;;;;;;62.33;49.33;;;;;10.18;37.67;99037.41;4837231;28;102592;-85
2021/10/11 07:16:18;;;;;;;;;64.00;48.33;;;;;10.18;37.61;99029.28;4848825;28;104203;-85
2021/10/11 07:18:45;;;;;;;;;63.67;50.33;;;;;10.17;37.83;99027.63;4846033;28;102309;-86
2021/10/11 07:21:12;;;;;;;;;62.00;49.67;;;;;10.18;37.76;99030.13;4829829;28;104090;-85
2021/10/11 07:23:39;;;;;;;;;66.00;50.00;;;;;10.18;37.70;99023.88;4855121;28;102341;-85
2021/10/11 07:26:07;;;;;;;;;68.33;52.67;;;;;10.18;37.94;99024.72;4853592;28;104092;-85
2021/10/11 07:28:34;;;;;;;;;60.00;47.67;;;;;10.20;38.04;99027.25;4848442;28;102668;-85
2021/10/11 07:31:01;;;;;;;;;67.00;52.33;;;;;10.18;37.92;99021.19;4859530;28;104299;-84
2021/10/11 07:33:28;;;;;;;;;59.00;48.00;;;;;10.19;38.33;99022.88;4862149;28;102595;-85
2021/10/11 07:35:55;;;;;;;;;65.00;50.33;;;;;10.18;37.98;99019.31;4853841;28;102362;-85
2021/10/11 07:38:22;;;;;;;;;66.33;51.00;;;;;10.19;38.26;99009.34;4859622;28;103377;-85
2021/10/11 07:40:50;;;;;;;;;68.33;52.67;;;;;10.18;37.97;99013.06;4847293;28;104087;-85
2021/10/11 07:43:17;;;;;;;;;69.00;49.33;;;;;10.19;38.36;99012.06;4848453;28;102749;-85
2021/10/11 07:45:45;;;;;;;;;62.33;50.33;;;;;10.17;38.03;99014.13;4849540;28;102479;-85
2021/10/11 07:48:12;;;;;;;;;66.33;50.00;;;;;10.17;38.36;99008.72;4848057;28;104840;-85
2021/10/11 07:50:39;;;;;;;;;66.00;51.00;;;;;10.17;38.34;99011.44;4849041;28;104288;-85
2021/10/11 07:53:06;;;;;;;;;66.00;49.67;;;;;10.18;38.31;99022.03;4833264;28;102416;-85
2021/10/11 07:55:33;;;;;;;;;63.33;50.33;;;;;10.16;38.49;99010.59;4859886;28;102442;-84
2021/10/11 07:58:00;;;;;;;;;67.33;51.33;;;;;10.17;38.73;99011.44;4850478;28;102302;-85
2021/10/11 08:00:27;;;;;;;;;64.67;51.00;;;;;10.18;38.89;99013.91;4857221;28;111755;-85
2021/10/11 08:02:54;;;;;;;;;66.67;50.00;;;;;10.20;38.61;99011.03;4851222;28;102185;-85
2021/10/11 08:05:21;;;;;;;;;72.33;52.33;;;;;10.19;38.94;99014.75;4856682;28;103306;-85
2021/10/11 08:07:48;;;;;;;;;67.33;51.33;;;;;10.21;38.99;99007.31;4855115;28;102569;-85
2021/10/11 08:10:15;;;;;;;;;63.67;51.00;;;;;10.20;39.03;99005.63;4862483;28;104168;-85
2021/10/11 08:12:43;;;;;;;;;63.67;49.67;;;;;10.21;39.15;98997.34;4846920;28;105528;-85
2021/10/11 08:15:10;;;;;;;;;63.33;50.33;;;;;10.22;39.47;99003.59;4857278;28;102250;-85
2021/10/11 08:17:37;;;;;;;;;64.67;52.00;;;;;10.22;39.83;98996.28;4859663;28;102289;-85
2021/10/11 08:20:05;;;;;;;;;71.00;51.33;;;;;10.23;39.54;98991.72;4853562;28;104040;-85
2021/10/11 08:22:32;;;;;;;;;67.33;53.00;;;;;10.23;39.76;98983.63;4860299;28;111016;-85
2021/10/11 08:24:59;;;;;;;;;64.33;51.00;;;;;10.24;39.79;98982.59;4861279;28;102695;-85
2021/10/11 08:27:27;;;;;;;;;65.00;52.00;;;;;10.26;39.82;98983.28;4855262;28;102698;-85
2021/10/11 08:29:54;;;;;;;;;64.67;51.33;;;;;10.26;40.07;98970.59;4857206;28;104114;-85
2021/10/11 08:32:22;;;;;;;;;28.33;16.00;;;;;10.29;40.00;98974.78;4845266;28;102905;-85
2021/10/11 08:34:50;;;;;;;;;64.67;51.33;;;;;10.28;40.10;98971.22;4840550;28;105251;-85
2021/10/11 08:37:17;;;;;;;;;66.67;51.00;;;;;10.28;40.89;98964.97;4851078;28;102531;-85
2021/10/11 08:39:44;;;;;;;;;75.33;55.00;;;;;10.31;40.67;98974.59;4852890;28;104062;-85
2021/10/11 08:42:11;;;;;;;;;67.33;51.00;;;;;10.31;40.84;98969.19;4831684;28;102622;-85
2021/10/11 08:44:39;;;;;;;;;66.00;52.33;;;;;10.32;40.85;98960.88;4820468;28;103679;-85
2021/10/11 08:47:09;;;;;;;;;66.33;51.00;;;;;10.36;40.71;98970.28;4849949;28;103278;-85
2021/10/11 08:49:40;;;;;;;;;66.25;51.50;;;;;10.37;40.54;98963.84;4848484;28;104098;-85
2021/10/11 08:52:08;;;;;;;;;66.67;51.00;;;;;10.41;41.07;98953.47;4835840;28;102886;-85
2021/10/11 08:54:36;;;;;;;;;71.00;51.00;;;;;10.41;41.28;98954.31;4860947;28;102524;-85
2021/10/11 08:57:06;;;;;;;;;65.00;50.67;;;;;10.42;41.32;98955.16;4846001;28;102652;-83
2021/10/11 08:59:49;;;;;;;;;62.67;50.33;;;;;10.41;41.88;98957.03;4854945;28;104311;-85
2021/10/11 09:02:20;;;;;;;;;63.33;50.33;;;;;10.43;41.86;98963.09;4858240;28;102691;-85
2021/10/11 09:04:57;;;;;;;;;66.00;51.00;;;;;10.44;42.39;98964.78;4841968;28;102390;-85
2021/10/11 09:07:26;;;;;;;;;61.67;49.33;;;;;10.45;42.48;98961.00;4855538;28;102615;-85
2021/10/11 09:09:54;;;;;;;;;64.33;48.67;;;;;10.46;42.29;98962.69;4854512;28;104276;-85
2021/10/11 09:12:23;;;;;;;;;63.33;50.00;;;;;10.49;42.31;98962.31;4842693;28;103562;-85
2021/10/11 09:15:09;;;;;;;;;63.25;48.50;;;;;10.52;42.59;98969.22;4849493;28;102463;-85
2021/10/11 09:17:41;;;;;;;;;62.00;48.33;;;;;10.53;42.84;98973.59;4834314;28;102552;-85
2021/10/11 09:20:12;;;;;;;;;65.33;48.67;;;;;10.54;42.77;98973.38;4844890;28;104216;-85
2021/10/11 09:22:40;;;;;;;;;63.50;47.50;;;;;10.55;43.16;98966.13;4836199;28;103885;-85
2021/10/11 09:25:07;;;;;;;;;59.00;48.25;;;;;10.57;42.87;98964.06;4819319;28;102561;-85
2021/10/11 09:27:55;;;;;;;;;64.75;50.50;;;;;10.57;43.05;98964.06;4846643;28;104197;-84
2021/10/11 09:30:27;;;;;;;;;63.50;50.00;;;;;10.59;43.50;98959.28;4849283;28;104123;-85
2021/10/11 09:33:17;;;;;;;;;55.75;45.00;;;;;10.60;43.22;98951.00;4815249;28;102889;-85
2021/10/11 09:35:45;;;;;;;;;58.00;48.33;;;;;10.61;43.49;98954.53;4819745;28;102774;-85
2021/10/11 09:38:25;;;;;;;;;62.75;49.75;;;;;10.61;43.74;98955.38;4818711;28;102856;-85
2021/10/11 09:40:55;;;;;;;;;63.00;48.00;;;;;10.62;43.74;98946.25;4822707;28;104229;-85
2021/10/11 09:43:23;;;;;;;;;62.75;48.00;;;;;10.64;43.73;98946.03;4821218;28;102713;-85
2021/10/11 09:45:51;;;;;;;;;58.67;47.67;;;;;10.65;43.98;98945.00;4823077;28;105293;-85
2021/10/11 09:48:18;;;;;;;;;62.25;48.25;;;;;10.66;43.88;98942.13;4836071;28;102477;-85
2021/10/11 09:50:45;;;;;;;;;58.50;42.75;;;;;10.69;43.84;98951.69;4804914;28;104244;-85
2021/10/11 09:53:14;;;;;;;;;61.25;46.75;;;;;10.70;44.32;98945.28;4835442;28;102668;-85
2021/10/11 09:55:41;;;;;;;;;65.00;49.67;;;;;10.71;44.20;98942.38;4831821;28;104054;-85
2021/10/11 09:58:11;;;;;;;;;60.00;48.25;;;;;10.71;44.19;98945.09;4823451;28;102587;-85
2021/10/11 10:00:39;;;;;;;;;57.00;44.75;;;;;10.73;44.24;98939.47;4810797;28;104341;-85
2021/10/11 10:03:06;;;;;;;;;60.50;46.00;;;;;10.74;44.68;98943.84;4847588;28;104344;-84
2021/10/11 10:05:36;;;;;;;;;56.50;44.75;;;;;10.77;44.62;98934.50;4832748;28;102714;-85
2021/10/11 10:08:22;;;;;;;;;57.00;45.00;;;;;10.78;44.34;98936.19;4835576;28;102173;-85
2021/10/11 10:11:00;;;;;;;;;61.50;45.25;;;;;10.80;44.54;98942.25;4821168;28;108865;-85
2021/10/11 10:13:31;;;;;;;;;58.25;44.75;;;;;10.83;44.35;98933.72;4841723;28;103579;-85
2021/10/11 10:16:08;;;;;;;;;54.00;41.00;;;;;10.85;44.83;98929.78;4835689;28;102626;-85
2021/10/11 10:18:38;;;;;;;;;57.50;44.00;;;;;10.87;44.59;98916.06;4845671;28;102717;-85
2021/10/11 10:21:06;;;;;;;;;56.75;43.25;;;;;10.88;44.57;98909.63;4863285;28;104056;-85
2021/10/11 10:23:36;;;;;;;;;58.75;43.50;;;;;10.90;44.98;98910.25;4850356;28;102593;-85
2021/10/11 10:26:08;;;;;;;;;46.50;39.50;;;;;10.91;44.94;98910.06;4855273;28;102666;-85
2021/10/11 10:28:43;;;;;;;;;53.25;41.00;;;;;10.94;44.90;98900.75;4858552;28;103022;-85
2021/10/11 10:31:10;;;;;;;;;53.75;41.25;;;;;10.94;44.62;98906.97;4853639;28;109050;-85
2021/10/11 10:33:39;;;;;;;;;50.75;40.25;;;;;10.95;44.94;98902.41;4850647;28;102711;-85
2021/10/11 10:36:21;;;;;;;;;51.50;40.00;;;;;10.98;44.81;98902.03;4863973;28;102581;-85
2021/10/11 10:39:08;;;;;;;;;51.00;37.00;;;;;10.97;45.28;98889.53;4852203;28;103956;-85
2021/10/11 10:41:37;;;;;;;;;51.25;38.00;;;;;10.99;45.06;98890.16;4852868;28;109046;-85
2021/10/11 10:44:18;;;;;;;;;41.25;36.50;;;;;11.01;44.70;98885.38;4853882;28;102738;-85
2021/10/11 10:47:04;;;;;;;;;41.00;35.75;;;;;11.01;44.54;98883.53;4855380;28;102463;-85
2021/10/11 10:49:37;;;;;;;;;51.00;40.00;;;;;11.04;44.90;98891.25;4854486;28;102709;-85
2021/10/11 10:52:16;;;;;;;;;50.00;39.75;;;;;11.05;44.99;98879.38;4855312;28;108358;-85
2021/10/11 10:54:47;;;;;;;;;43.00;37.00;;;;;11.07;45.07;98881.91;4832223;28;102543;-85
2021/10/11 10:57:18;;;;;;;;;40.75;35.75;;;;;11.10;44.91;98863.41;4844684;28;103466;-85
2021/10/11 10:59:58;;;;;;;;;33.25;31.25;;;;;11.12;44.88;98871.34;4832639;28;102743;-85
2021/10/11 11:02:29;;;;;;;;;38.75;35.25;;;;;11.14;44.72;98871.94;4848117;28;104113;-85
2021/10/11 11:05:00;;;;;;;;;39.75;34.25;;;;;11.17;44.36;98868.84;4835541;28;102521;-86
2021/10/11 11:07:33;;;;;;;;;44.75;35.00;;;;;11.19;44.50;98861.38;4851032;28;102563;-85
2021/10/11 11:10:05;;;;;;;;;38.50;34.75;;;;;11.19;44.75;98858.66;4842776;28;102664;-85
2021/10/11 11:12:34;;;;;;;;;42.00;33.50;;;;;11.24;44.60;98858.91;4843235;28;104298;-85
2021/10/11 11:15:04;;;;;;;;;47.00;34.50;;;;;11.23;44.87;98851.81;4831494;28;103403;-86